sensor_id;sensor_type;location;lat;lon;timestamp;pressure;altitude;pressure_sealevel;temperature;humidity
85023;BME280;75348;43.126;-2.538;2024-01-10T00:01:25;99781.59;;;2.96;98.52
85023;BME280;75348;43.126;-2.538;2024-01-10T00:03:57;99780.28;;;2.78;96.96
85023;BME280;75348;43.126;-2.538;2024-01-10T00:06:25;99762.47;;;2.83;98.78
85023;BME280;75348;43.126;-2.538;2024-01-10T00:08:52;99769.78;;;3.26;98.89
85023;BME280;75348;43.126;-2.538;2024-01-10T00:11:21;99768.91;;;3.14;96.48
85023;BME280;75348;43.126;-2.538;2024-01-10T00:13:49;99750.81;;;2.99;98.35
85023;BME280;75348;43.126;-2.538;2024-01-10T00:16:20;99765.16;;;3.06;97.93
85023;BME280;75348;43.126;-2.538;2024-01-10T00:18:48;99771.06;;;2.60;95.33
85023;BME280;75348;43.126;-2.538;2024-01-10T00:21:16;99764.19;;;2.34;96.83
85023;BME280;75348;43.126;-2.538;2024-01-10T00:23:43;99772.13;;;2.33;95.75
85023;BME280;75348;43.126;-2.538;2024-01-10T00:26:13;99771.06;;;2.60;99.53
85023;BME280;75348;43.126;-2.538;2024-01-10T00:28:44;99763.03;;;2.63;99.98
85023;BME280;75348;43.126;-2.538;2024-01-10T00:31:17;99745.88;;;2.59;99.14
85023;BME280;75348;43.126;-2.538;2024-01-10T00:33:44;99758.06;;;2.83;99.13
85023;BME280;75348;43.126;-2.538;2024-01-10T00:36:11;99757.69;;;2.77;97.46
85023;BME280;75348;43.126;-2.538;2024-01-10T00:38:43;99750.56;;;2.66;97.53
85023;BME280;75348;43.126;-2.538;2024-01-10T00:41:14;99747.09;;;2.78;99.64
85023;BME280;75348;43.126;-2.538;2024-01-10T00:43:41;99735.22;;;2.98;98.21
85023;BME280;75348;43.126;-2.538;2024-01-10T00:46:11;99748.41;;;2.96;99.26
85023;BME280;75348;43.126;-2.538;2024-01-10T00:48:38;99749.84;;;3.12;98.07
85023;BME280;75348;43.126;-2.538;2024-01-10T00:51:05;99752.47;;;3.12;98.70
85023;BME280;75348;43.126;-2.538;2024-01-10T00:53:35;99744.72;;;3.11;98.22
85023;BME280;75348;43.126;-2.538;2024-01-10T00:56:06;99726.78;;;3.17;98.46
85023;BME280;75348;43.126;-2.538;2024-01-10T00:58:34;99746.88;;;3.17;99.23
85023;BME280;75348;43.126;-2.538;2024-01-10T01:01:04;99729.09;;;3.22;98.68
85023;BME280;75348;43.126;-2.538;2024-01-10T01:03:37;99734.13;;;3.36;98.12
85023;BME280;75348;43.126;-2.538;2024-01-10T01:06:07;99716.94;;;3.21;97.42
85023;BME280;75348;43.126;-2.538;2024-01-10T01:08:34;99723.22;;;3.18;97.65
85023;BME280;75348;43.126;-2.538;2024-01-10T01:11:06;99712.09;;;2.92;97.32
85023;BME280;75348;43.126;-2.538;2024-01-10T01:13:33;99715.75;;;3.02;96.83
85023;BME280;75348;43.126;-2.538;2024-01-10T01:16:04;99704.03;;;2.59;96.50
85023;BME280;75348;43.126;-2.538;2024-01-10T01:18:39;99710.00;;;2.61;96.97
85023;BME280;75348;43.126;-2.538;2024-01-10T01:21:06;99710.09;;;2.60;97.44
85023;BME280;75348;43.126;-2.538;2024-01-10T01:23:37;99698.31;;;2.54;97.34
85023;BME280;75348;43.126;-2.538;2024-01-10T01:26:08;99702.78;;;2.52;95.76
85023;BME280;75348;43.126;-2.538;2024-01-10T01:28:36;99690.78;;;2.50;98.95
85023;BME280;75348;43.126;-2.538;2024-01-10T01:31:03;99700.09;;;2.89;99.80
85023;BME280;75348;43.126;-2.538;2024-01-10T01:33:33;99702.31;;;3.29;99.22
85023;BME280;75348;43.126;-2.538;2024-01-10T01:36:01;99693.31;;;3.10;96.60
85023;BME280;75348;43.126;-2.538;2024-01-10T01:38:32;99692.81;;;3.28;97.90
85023;BME280;75348;43.126;-2.538;2024-01-10T01:41:00;99691.78;;;3.42;98.17
85023;BME280;75348;43.126;-2.538;2024-01-10T01:43:29;99701.22;;;3.44;97.59
85023;BME280;75348;43.126;-2.538;2024-01-10T01:45:57;99701.16;;;3.33;96.44
85023;BME280;75348;43.126;-2.538;2024-01-10T01:48:24;99704.25;;;2.92;95.58
85023;BME280;75348;43.126;-2.538;2024-01-10T01:51:04;99700.47;;;2.60;95.94
85023;BME280;75348;43.126;-2.538;2024-01-10T01:53:35;99705.56;;;2.74;99.76
85023;BME280;75348;43.126;-2.538;2024-01-10T01:56:10;99704.13;;;2.70;94.31
85023;BME280;75348;43.126;-2.538;2024-01-10T01:58:45;99709.47;;;2.56;96.87
85023;BME280;75348;43.126;-2.538;2024-01-10T02:01:19;99719.66;;;2.48;96.05
85023;BME280;75348;43.126;-2.538;2024-01-10T02:03:53;99715.94;;;2.63;97.68
85023;BME280;75348;43.126;-2.538;2024-01-10T02:06:25;99709.06;;;2.98;100.00
85023;BME280;75348;43.126;-2.538;2024-01-10T02:08:58;99711.91;;;3.18;99.29
85023;BME280;75348;43.126;-2.538;2024-01-10T02:11:26;99710.91;;;3.08;97.64
85023;BME280;75348;43.126;-2.538;2024-01-10T02:13:57;99707.31;;;2.86;97.14
85023;BME280;75348;43.126;-2.538;2024-01-10T02:16:25;99707.16;;;3.00;99.14
85023;BME280;75348;43.126;-2.538;2024-01-10T02:18:56;99708.53;;;3.28;99.83
85023;BME280;75348;43.126;-2.538;2024-01-10T02:21:23;99692.81;;;3.28;99.11
85023;BME280;75348;43.126;-2.538;2024-01-10T02:23:53;99690.91;;;3.30;99.52
85023;BME280;75348;43.126;-2.538;2024-01-10T02:26:21;99689.78;;;3.45;99.56
85023;BME280;75348;43.126;-2.538;2024-01-10T02:28:52;99684.22;;;3.26;97.46
85023;BME280;75348;43.126;-2.538;2024-01-10T02:31:20;99691.31;;;3.13;97.56
85023;BME280;75348;43.126;-2.538;2024-01-10T02:33:47;99693.66;;;2.70;96.40
85023;BME280;75348;43.126;-2.538;2024-01-10T02:36:16;99697.63;;;2.63;97.35
85023;BME280;75348;43.126;-2.538;2024-01-10T02:38:49;99690.75;;;2.62;98.15
85023;BME280;75348;43.126;-2.538;2024-01-10T02:41:17;99677.50;;;2.76;99.43
85023;BME280;75348;43.126;-2.538;2024-01-10T02:43:44;99698.81;;;2.95;99.84
85023;BME280;75348;43.126;-2.538;2024-01-10T02:46:14;99692.41;;;2.63;96.82
85023;BME280;75348;43.126;-2.538;2024-01-10T02:48:41;99695.78;;;2.65;98.99
85023;BME280;75348;43.126;-2.538;2024-01-10T02:51:13;99692.00;;;3.15;100.00
85023;BME280;75348;43.126;-2.538;2024-01-10T02:53:41;99672.25;;;3.11;100.00
85023;BME280;75348;43.126;-2.538;2024-01-10T02:56:10;99677.78;;;3.19;99.91
85023;BME280;75348;43.126;-2.538;2024-01-10T02:58:38;99680.81;;;3.37;99.78
85023;BME280;75348;43.126;-2.538;2024-01-10T03:01:05;99669.47;;;3.25;99.34
85023;BME280;75348;43.126;-2.538;2024-01-10T03:03:36;99680.03;;;3.47;99.58
85023;BME280;75348;43.126;-2.538;2024-01-10T03:06:03;99686.34;;;3.45;99.79
85023;BME280;75348;43.126;-2.538;2024-01-10T03:08:34;99679.34;;;3.56;100.00
85023;BME280;75348;43.126;-2.538;2024-01-10T03:11:01;99682.94;;;3.32;97.56
85023;BME280;75348;43.126;-2.538;2024-01-10T03:13:32;99684.84;;;3.30;99.17
85023;BME280;75348;43.126;-2.538;2024-01-10T03:16:00;99682.63;;;3.36;100.00
85023;BME280;75348;43.126;-2.538;2024-01-10T03:18:34;99684.75;;;3.42;99.26
85023;BME280;75348;43.126;-2.538;2024-01-10T03:21:04;99697.13;;;3.40;98.97
85023;BME280;75348;43.126;-2.538;2024-01-10T03:23:32;99697.63;;;3.45;99.24
85023;BME280;75348;43.126;-2.538;2024-01-10T03:26:03;99689.06;;;3.20;97.40
85023;BME280;75348;43.126;-2.538;2024-01-10T03:28:31;99699.59;;;3.08;96.89
85023;BME280;75348;43.126;-2.538;2024-01-10T03:31:00;99686.94;;;3.48;99.59
85023;BME280;75348;43.126;-2.538;2024-01-10T03:33:27;99684.00;;;3.29;96.61
85023;BME280;75348;43.126;-2.538;2024-01-10T03:35:54;99669.75;;;3.10;96.21
85023;BME280;75348;43.126;-2.538;2024-01-10T03:38:24;99674.28;;;3.31;99.37
85023;BME280;75348;43.126;-2.538;2024-01-10T03:40:51;99681.69;;;3.48;99.97
85023;BME280;75348;43.126;-2.538;2024-01-10T03:43:18;99677.94;;;3.29;97.15
85023;BME280;75348;43.126;-2.538;2024-01-10T03:45:48;99673.41;;;3.54;100.00
85023;BME280;75348;43.126;-2.538;2024-01-10T03:48:15;99674.72;;;3.59;99.56
85023;BME280;75348;43.126;-2.538;2024-01-10T03:50:43;99671.19;;;3.37;97.28
85023;BME280;75348;43.126;-2.538;2024-01-10T03:53:12;99669.25;;;3.28;98.43
85023;BME280;75348;43.126;-2.538;2024-01-10T03:55:39;99669.56;;;3.47;99.51
85023;BME280;75348;43.126;-2.538;2024-01-10T03:58:08;99667.19;;;3.44;98.31
85023;BME280;75348;43.126;-2.538;2024-01-10T04:00:35;99668.22;;;3.76;98.72
85023;BME280;75348;43.126;-2.538;2024-01-10T04:03:03;99659.91;;;3.48;96.66
85023;BME280;75348;43.126;-2.538;2024-01-10T04:05:30;99666.06;;;3.70;99.92
85023;BME280;75348;43.126;-2.538;2024-01-10T04:08:01;99667.03;;;3.35;96.97
85023;BME280;75348;43.126;-2.538;2024-01-10T04:10:28;99666.25;;;3.56;98.15
85023;BME280;75348;43.126;-2.538;2024-01-10T04:12:59;99664.84;;;3.74;100.00
85023;BME280;75348;43.126;-2.538;2024-01-10T04:15:26;99641.88;;;3.66;99.22
85023;BME280;75348;43.126;-2.538;2024-01-10T04:17:54;99656.19;;;3.84;98.22
85023;BME280;75348;43.126;-2.538;2024-01-10T04:20:25;99650.38;;;3.92;99.10
85023;BME280;75348;43.126;-2.538;2024-01-10T04:22:55;99649.66;;;3.79;98.43
85023;BME280;75348;43.126;-2.538;2024-01-10T04:25:22;99652.88;;;3.82;99.35
85023;BME280;75348;43.126;-2.538;2024-01-10T04:27:49;99655.28;;;4.07;98.88
85023;BME280;75348;43.126;-2.538;2024-01-10T04:30:20;99649.56;;;4.35;96.42
85023;BME280;75348;43.126;-2.538;2024-01-10T04:32:47;99645.03;;;5.63;87.00
85023;BME280;75348;43.126;-2.538;2024-01-10T04:35:15;99641.09;;;5.88;85.00
85023;BME280;75348;43.126;-2.538;2024-01-10T04:37:43;99637.69;;;6.27;81.93
85023;BME280;75348;43.126;-2.538;2024-01-10T04:40:11;99638.00;;;6.33;82.37
85023;BME280;75348;43.126;-2.538;2024-01-10T04:42:38;99635.22;;;6.05;84.01
85023;BME280;75348;43.126;-2.538;2024-01-10T04:45:14;99635.31;;;5.94;84.05
85023;BME280;75348;43.126;-2.538;2024-01-10T04:47:42;99651.78;;;5.56;85.82
85023;BME280;75348;43.126;-2.538;2024-01-10T04:50:09;99635.50;;;5.62;86.93
85023;BME280;75348;43.126;-2.538;2024-01-10T04:52:40;99632.31;;;5.78;86.11
85023;BME280;75348;43.126;-2.538;2024-01-10T04:55:07;99633.59;;;6.04;83.26
85023;BME280;75348;43.126;-2.538;2024-01-10T04:57:38;99636.97;;;5.95;84.46
85023;BME280;75348;43.126;-2.538;2024-01-10T05:00:06;99642.00;;;5.98;83.51
85023;BME280;75348;43.126;-2.538;2024-01-10T05:02:35;99638.81;;;5.64;88.13
85023;BME280;75348;43.126;-2.538;2024-01-10T05:05:03;99638.72;;;5.34;89.93
85023;BME280;75348;43.126;-2.538;2024-01-10T05:07:31;99645.34;;;4.86;90.14
85023;BME280;75348;43.126;-2.538;2024-01-10T05:10:01;99635.97;;;4.62;91.28
85023;BME280;75348;43.126;-2.538;2024-01-10T05:12:29;99629.63;;;4.54;91.51
85023;BME280;75348;43.126;-2.538;2024-01-10T05:14:58;99627.22;;;4.73;94.13
85023;BME280;75348;43.126;-2.538;2024-01-10T05:17:26;99614.41;;;4.37;93.51
85023;BME280;75348;43.126;-2.538;2024-01-10T05:19:54;99627.75;;;4.45;95.89
85023;BME280;75348;43.126;-2.538;2024-01-10T05:22:24;99622.16;;;4.39;94.42
85023;BME280;75348;43.126;-2.538;2024-01-10T05:24:55;99614.66;;;4.34;95.96
85023;BME280;75348;43.126;-2.538;2024-01-10T05:27:23;99618.69;;;4.27;93.34
85023;BME280;75348;43.126;-2.538;2024-01-10T05:29:53;99622.53;;;4.23;93.09
85023;BME280;75348;43.126;-2.538;2024-01-10T05:32:20;99618.44;;;4.52;97.25
85023;BME280;75348;43.126;-2.538;2024-01-10T05:34:48;99616.63;;;4.63;97.77
85023;BME280;75348;43.126;-2.538;2024-01-10T05:37:20;99623.81;;;4.40;96.33
85023;BME280;75348;43.126;-2.538;2024-01-10T05:39:52;99613.09;;;4.21;94.32
85023;BME280;75348;43.126;-2.538;2024-01-10T05:42:19;99633.25;;;4.42;96.31
85023;BME280;75348;43.126;-2.538;2024-01-10T05:44:50;99625.66;;;5.12;88.51
85023;BME280;75348;43.126;-2.538;2024-01-10T05:47:17;99623.13;;;6.14;81.72
85023;BME280;75348;43.126;-2.538;2024-01-10T05:49:44;99607.03;;;6.46;80.18
85023;BME280;75348;43.126;-2.538;2024-01-10T05:52:16;99611.84;;;6.90;76.05
85023;BME280;75348;43.126;-2.538;2024-01-10T05:54:43;99622.53;;;6.88;77.32
85023;BME280;75348;43.126;-2.538;2024-01-10T05:57:12;99624.66;;;7.04;75.19
85023;BME280;75348;43.126;-2.538;2024-01-10T05:59:39;99625.69;;;6.82;77.99
85023;BME280;75348;43.126;-2.538;2024-01-10T06:02:06;99618.00;;;6.61;78.33
85023;BME280;75348;43.126;-2.538;2024-01-10T06:04:35;99627.59;;;6.62;77.58
85023;BME280;75348;43.126;-2.538;2024-01-10T06:07:05;99622.22;;;6.72;77.08
85023;BME280;75348;43.126;-2.538;2024-01-10T06:09:32;99642.81;;;6.58;79.75
85023;BME280;75348;43.126;-2.538;2024-01-10T06:12:03;99633.09;;;6.49;78.75
85023;BME280;75348;43.126;-2.538;2024-01-10T06:14:33;99630.28;;;6.41;80.95
85023;BME280;75348;43.126;-2.538;2024-01-10T06:17:00;99621.88;;;6.18;85.25
85023;BME280;75348;43.126;-2.538;2024-01-10T06:19:28;99617.59;;;6.26;83.16
85023;BME280;75348;43.126;-2.538;2024-01-10T06:21:59;99611.66;;;6.24;82.55
85023;BME280;75348;43.126;-2.538;2024-01-10T06:24:26;99591.13;;;6.18;81.85
85023;BME280;75348;43.126;-2.538;2024-01-10T06:26:56;99598.28;;;6.85;77.04
85023;BME280;75348;43.126;-2.538;2024-01-10T06:29:24;99601.06;;;7.02;76.90
85023;BME280;75348;43.126;-2.538;2024-01-10T06:31:53;99624.66;;;7.13;74.97
85023;BME280;75348;43.126;-2.538;2024-01-10T06:34:20;99579.72;;;7.05;75.19
85023;BME280;75348;43.126;-2.538;2024-01-10T06:36:48;99586.50;;;7.07;74.92
85023;BME280;75348;43.126;-2.538;2024-01-10T06:39:18;99589.81;;;7.00;75.93
85023;BME280;75348;43.126;-2.538;2024-01-10T06:41:52;99590.38;;;6.94;76.12
85023;BME280;75348;43.126;-2.538;2024-01-10T06:44:20;99595.78;;;6.83;76.99
85023;BME280;75348;43.126;-2.538;2024-01-10T06:46:48;99612.25;;;6.85;76.81
85023;BME280;75348;43.126;-2.538;2024-01-10T06:49:18;99601.31;;;6.80;76.79
85023;BME280;75348;43.126;-2.538;2024-01-10T06:51:45;99596.16;;;6.69;77.73
85023;BME280;75348;43.126;-2.538;2024-01-10T06:54:13;99600.94;;;6.46;78.66
85023;BME280;75348;43.126;-2.538;2024-01-10T06:56:41;99609.16;;;6.62;78.03
85023;BME280;75348;43.126;-2.538;2024-01-10T06:59:12;99598.09;;;6.67;77.80
85023;BME280;75348;43.126;-2.538;2024-01-10T07:01:40;99598.91;;;6.68;78.22
85023;BME280;75348;43.126;-2.538;2024-01-10T07:04:07;99606.94;;;6.66;78.43
85023;BME280;75348;43.126;-2.538;2024-01-10T07:06:35;99596.41;;;6.57;79.10
85023;BME280;75348;43.126;-2.538;2024-01-10T07:09:03;99610.53;;;6.65;77.84
85023;BME280;75348;43.126;-2.538;2024-01-10T07:11:35;99605.81;;;6.50;79.85
85023;BME280;75348;43.126;-2.538;2024-01-10T07:14:03;99619.25;;;6.57;80.14
85023;BME280;75348;43.126;-2.538;2024-01-10T07:16:31;99604.16;;;6.59;78.48
85023;BME280;75348;43.126;-2.538;2024-01-10T07:19:02;99601.38;;;6.51;79.25
85023;BME280;75348;43.126;-2.538;2024-01-10T07:21:30;99611.50;;;6.55;79.14
85023;BME280;75348;43.126;-2.538;2024-01-10T07:24:00;99609.44;;;6.59;79.24
85023;BME280;75348;43.126;-2.538;2024-01-10T07:26:27;99606.53;;;6.62;79.01
85023;BME280;75348;43.126;-2.538;2024-01-10T07:28:55;99622.47;;;6.60;80.19
85023;BME280;75348;43.126;-2.538;2024-01-10T07:31:23;99631.31;;;6.59;79.37
85023;BME280;75348;43.126;-2.538;2024-01-10T07:33:51;99637.13;;;6.53;80.47
85023;BME280;75348;43.126;-2.538;2024-01-10T07:36:18;99651.50;;;6.49;79.52
85023;BME280;75348;43.126;-2.538;2024-01-10T07:38:47;99659.75;;;6.35;81.01
85023;BME280;75348;43.126;-2.538;2024-01-10T07:41:21;99661.13;;;6.30;81.69
85023;BME280;75348;43.126;-2.538;2024-01-10T07:44:05;99669.41;;;6.25;82.60
85023;BME280;75348;43.126;-2.538;2024-01-10T07:46:38;99662.75;;;6.21;83.76
85023;BME280;75348;43.126;-2.538;2024-01-10T07:49:11;99661.28;;;6.08;85.97
85023;BME280;75348;43.126;-2.538;2024-01-10T07:51:41;99671.28;;;6.14;81.49
85023;BME280;75348;43.126;-2.538;2024-01-10T07:54:15;99666.34;;;6.20;83.19
85023;BME280;75348;43.126;-2.538;2024-01-10T07:56:44;99662.41;;;6.74;77.30
85023;BME280;75348;43.126;-2.538;2024-01-10T07:59:13;99674.47;;;6.67;79.04
85023;BME280;75348;43.126;-2.538;2024-01-10T08:01:55;99663.19;;;6.65;77.37
85023;BME280;75348;43.126;-2.538;2024-01-10T08:04:33;99648.91;;;6.59;79.40
85023;BME280;75348;43.126;-2.538;2024-01-10T08:07:02;99639.72;;;6.92;77.90
85023;BME280;75348;43.126;-2.538;2024-01-10T08:09:32;99636.44;;;7.09;77.29
85023;BME280;75348;43.126;-2.538;2024-01-10T08:12:01;99633.66;;;7.20;77.29
85023;BME280;75348;43.126;-2.538;2024-01-10T08:14:35;99631.72;;;7.22;77.28
85023;BME280;75348;43.126;-2.538;2024-01-10T08:17:17;99633.94;;;7.36;76.53
85023;BME280;75348;43.126;-2.538;2024-01-10T08:19:48;99645.91;;;7.30;76.28
85023;BME280;75348;43.126;-2.538;2024-01-10T08:22:18;99649.19;;;7.13;78.54
85023;BME280;75348;43.126;-2.538;2024-01-10T08:24:58;99646.69;;;7.12;77.27
85023;BME280;75348;43.126;-2.538;2024-01-10T08:27:28;99648.38;;;7.13;77.57
85023;BME280;75348;43.126;-2.538;2024-01-10T08:30:04;99643.78;;;7.15;75.54
85023;BME280;75348;43.126;-2.538;2024-01-10T08:32:35;99651.66;;;6.96;79.62
85023;BME280;75348;43.126;-2.538;2024-01-10T08:35:07;99662.63;;;7.10;77.69
85023;BME280;75348;43.126;-2.538;2024-01-10T08:37:41;99667.53;;;7.24;75.84
85023;BME280;75348;43.126;-2.538;2024-01-10T08:40:19;99670.84;;;7.26;77.48
85023;BME280;75348;43.126;-2.538;2024-01-10T08:42:49;99676.63;;;7.11;79.70
85023;BME280;75348;43.126;-2.538;2024-01-10T08:45:22;99682.88;;;7.01;80.88
85023;BME280;75348;43.126;-2.538;2024-01-10T08:47:51;99692.97;;;6.86;81.36
85023;BME280;75348;43.126;-2.538;2024-01-10T08:50:25;99698.72;;;6.71;83.20
85023;BME280;75348;43.126;-2.538;2024-01-10T08:53:07;99697.00;;;6.61;84.42
85023;BME280;75348;43.126;-2.538;2024-01-10T08:55:36;99705.69;;;6.52;84.37
85023;BME280;75348;43.126;-2.538;2024-01-10T08:58:12;99704.97;;;6.50;85.60
85023;BME280;75348;43.126;-2.538;2024-01-10T09:00:47;99704.16;;;6.49;85.74
85023;BME280;75348;43.126;-2.538;2024-01-10T09:03:17;99710.97;;;6.52;86.90
85023;BME280;75348;43.126;-2.538;2024-01-10T09:05:46;99708.22;;;6.33;87.21
85023;BME280;75348;43.126;-2.538;2024-01-10T09:08:31;99719.00;;;6.30;87.50
85023;BME280;75348;43.126;-2.538;2024-01-10T09:10:58;99732.94;;;6.21;91.64
85023;BME280;75348;43.126;-2.538;2024-01-10T09:13:30;99732.75;;;6.13;90.92
85023;BME280;75348;43.126;-2.538;2024-01-10T09:15:57;99731.94;;;6.13;93.75
85023;BME280;75348;43.126;-2.538;2024-01-10T09:18:29;99737.25;;;6.02;94.35
85023;BME280;75348;43.126;-2.538;2024-01-10T09:20:59;99742.63;;;6.00;95.74
85023;BME280;75348;43.126;-2.538;2024-01-10T09:23:38;99756.03;;;5.97;95.61
85023;BME280;75348;43.126;-2.538;2024-01-10T09:26:08;99746.13;;;5.90;95.22
85023;BME280;75348;43.126;-2.538;2024-01-10T09:28:40;99760.59;;;5.95;95.10
85023;BME280;75348;43.126;-2.538;2024-01-10T09:31:10;99743.91;;;5.85;96.82
85023;BME280;75348;43.126;-2.538;2024-01-10T09:33:38;99762.53;;;5.93;96.05
85023;BME280;75348;43.126;-2.538;2024-01-10T09:36:08;99773.63;;;5.97;95.97
85023;BME280;75348;43.126;-2.538;2024-01-10T09:38:49;99770.88;;;5.98;94.82
85023;BME280;75348;43.126;-2.538;2024-01-10T09:41:18;99772.00;;;6.05;95.04
85023;BME280;75348;43.126;-2.538;2024-01-10T09:43:49;99775.69;;;6.14;94.04
85023;BME280;75348;43.126;-2.538;2024-01-10T09:46:18;99770.69;;;6.11;93.20
85023;BME280;75348;43.126;-2.538;2024-01-10T09:48:47;99762.56;;;6.23;93.01
85023;BME280;75348;43.126;-2.538;2024-01-10T09:51:22;99771.44;;;6.22;92.94
85023;BME280;75348;43.126;-2.538;2024-01-10T09:53:55;99764.50;;;6.21;92.96
85023;BME280;75348;43.126;-2.538;2024-01-10T09:56:27;99770.16;;;6.17;92.81
85023;BME280;75348;43.126;-2.538;2024-01-10T09:58:58;99769.81;;;6.10;94.26
85023;BME280;75348;43.126;-2.538;2024-01-10T10:01:27;99773.19;;;6.12;94.57
85023;BME280;75348;43.126;-2.538;2024-01-10T10:03:56;99772.59;;;6.09;96.52
85023;BME280;75348;43.126;-2.538;2024-01-10T10:06:29;99766.25;;;6.11;96.67
85023;BME280;75348;43.126;-2.538;2024-01-10T10:09:00;99770.44;;;6.14;97.17
85023;BME280;75348;43.126;-2.538;2024-01-10T10:11:36;99754.50;;;6.15;97.27
85023;BME280;75348;43.126;-2.538;2024-01-10T10:14:19;99761.63;;;6.24;96.75
85023;BME280;75348;43.126;-2.538;2024-01-10T10:16:52;99766.38;;;6.30;96.31
85023;BME280;75348;43.126;-2.538;2024-01-10T10:19:26;99767.78;;;6.34;95.28
85023;BME280;75348;43.126;-2.538;2024-01-10T10:22:08;99766.44;;;6.39;97.46
85023;BME280;75348;43.126;-2.538;2024-01-10T10:24:41;99775.09;;;6.51;97.08
85023;BME280;75348;43.126;-2.538;2024-01-10T10:27:16;99767.81;;;6.63;95.80
85023;BME280;75348;43.126;-2.538;2024-01-10T10:29:44;99777.78;;;6.60;92.32
85023;BME280;75348;43.126;-2.538;2024-01-10T10:32:16;99781.50;;;6.58;92.80
85023;BME280;75348;43.126;-2.538;2024-01-10T10:34:47;99782.91;;;6.62;93.12
85023;BME280;75348;43.126;-2.538;2024-01-10T10:37:20;99779.78;;;6.67;94.10
85023;BME280;75348;43.126;-2.538;2024-01-10T10:39:51;99770.88;;;6.68;96.28
85023;BME280;75348;43.126;-2.538;2024-01-10T10:42:20;99777.31;;;6.75;94.24
85023;BME280;75348;43.126;-2.538;2024-01-10T10:44:57;99764.50;;;6.91;93.57
85023;BME280;75348;43.126;-2.538;2024-01-10T10:47:39;99768.16;;;7.09;91.39
85023;BME280;75348;43.126;-2.538;2024-01-10T10:50:28;99763.34;;;7.23;90.27
85023;BME280;75348;43.126;-2.538;2024-01-10T10:52:57;99764.03;;;7.25;93.34
85023;BME280;75348;43.126;-2.538;2024-01-10T10:55:32;99767.13;;;7.21;93.58
85023;BME280;75348;43.126;-2.538;2024-01-10T10:58:10;99766.81;;;7.24;94.08
85023;BME280;75348;43.126;-2.538;2024-01-10T11:00:40;99761.81;;;7.11;90.09
85023;BME280;75348;43.126;-2.538;2024-01-10T11:03:10;99754.31;;;7.07;94.53
85023;BME280;75348;43.126;-2.538;2024-01-10T11:05:41;99761.94;;;7.10;94.09
85023;BME280;75348;43.126;-2.538;2024-01-10T11:08:13;99762.22;;;7.07;94.11
85023;BME280;75348;43.126;-2.538;2024-01-10T11:10:51;99768.94;;;7.00;94.64
85023;BME280;75348;43.126;-2.538;2024-01-10T11:24:54;99763.59;;;7.11;94.66
85023;BME280;75348;43.126;-2.538;2024-01-10T11:27:30;99758.72;;;7.07;94.78
85023;BME280;75348;43.126;-2.538;2024-01-10T11:30:02;99762.84;;;7.00;94.64
85023;BME280;75348;43.126;-2.538;2024-01-10T11:32:33;99767.03;;;7.02;94.09
85023;BME280;75348;43.126;-2.538;2024-01-10T11:35:19;99771.88;;;6.97;93.26
85023;BME280;75348;43.126;-2.538;2024-01-10T11:37:56;99771.41;;;6.92;93.13
85023;BME280;75348;43.126;-2.538;2024-01-10T11:40:47;99768.31;;;6.78;94.21
85023;BME280;75348;43.126;-2.538;2024-01-10T11:43:19;99780.53;;;6.79;93.61
85023;BME280;75348;43.126;-2.538;2024-01-10T11:45:56;99774.31;;;6.80;92.97
85023;BME280;75348;43.126;-2.538;2024-01-10T11:48:27;99780.66;;;6.77;93.85
85023;BME280;75348;43.126;-2.538;2024-01-10T11:51:00;99775.63;;;6.74;93.23
85023;BME280;75348;43.126;-2.538;2024-01-10T11:53:43;99780.78;;;6.76;94.01
85023;BME280;75348;43.126;-2.538;2024-01-10T11:56:17;99781.59;;;6.76;93.99
85023;BME280;75348;43.126;-2.538;2024-01-10T11:59:12;99766.06;;;6.73;94.24
85023;BME280;75348;43.126;-2.538;2024-01-10T12:01:47;99762.88;;;6.70;93.81
85023;BME280;75348;43.126;-2.538;2024-01-10T12:04:19;99770.00;;;6.79;93.26
85023;BME280;75348;43.126;-2.538;2024-01-10T12:07:05;99775.00;;;6.82;93.44
85023;BME280;75348;43.126;-2.538;2024-01-10T12:09:36;99773.34;;;6.90;93.49
85023;BME280;75348;43.126;-2.538;2024-01-10T12:12:07;99783.63;;;6.93;93.00
85023;BME280;75348;43.126;-2.538;2024-01-10T12:14:37;99795.25;;;6.91;93.00
85023;BME280;75348;43.126;-2.538;2024-01-10T12:17:08;99789.94;;;6.81;92.79
85023;BME280;75348;43.126;-2.538;2024-01-10T12:19:40;99789.94;;;6.81;93.74
85023;BME280;75348;43.126;-2.538;2024-01-10T12:22:15;99783.53;;;6.74;93.89
85023;BME280;75348;43.126;-2.538;2024-01-10T12:24:51;99782.19;;;6.80;93.68
85023;BME280;75348;43.126;-2.538;2024-01-10T12:27:22;99759.59;;;6.77;94.99
85023;BME280;75348;43.126;-2.538;2024-01-10T12:30:00;99776.22;;;6.78;94.46
85023;BME280;75348;43.126;-2.538;2024-01-10T12:32:31;99767.81;;;6.63;94.23
85023;BME280;75348;43.126;-2.538;2024-01-10T12:35:07;99778.97;;;6.76;93.85
85023;BME280;75348;43.126;-2.538;2024-01-10T12:37:39;99773.19;;;6.82;95.24
85023;BME280;75348;43.126;-2.538;2024-01-10T12:40:09;99778.84;;;6.78;95.15
85023;BME280;75348;43.126;-2.538;2024-01-10T12:42:48;99771.31;;;6.73;95.35
85023;BME280;75348;43.126;-2.538;2024-01-10T12:45:21;99776.34;;;6.76;94.16
85023;BME280;75348;43.126;-2.538;2024-01-10T12:47:54;99776.38;;;6.86;94.08
85023;BME280;75348;43.126;-2.538;2024-01-10T12:50:22;99779.34;;;7.02;93.40
85023;BME280;75348;43.126;-2.538;2024-01-10T12:52:51;99780.34;;;7.01;92.58
85023;BME280;75348;43.126;-2.538;2024-01-10T12:55:21;99781.47;;;7.07;93.32
85023;BME280;75348;43.126;-2.538;2024-01-10T12:57:50;99773.66;;;6.97;95.00
85023;BME280;75348;43.126;-2.538;2024-01-10T13:00:36;99786.28;;;6.93;94.65
85023;BME280;75348;43.126;-2.538;2024-01-10T13:03:05;99778.59;;;6.81;94.66
85023;BME280;75348;43.126;-2.538;2024-01-10T13:05:40;99786.63;;;6.79;93.80
85023;BME280;75348;43.126;-2.538;2024-01-10T13:08:13;99781.59;;;6.76;94.19
85023;BME280;75348;43.126;-2.538;2024-01-10T13:10:42;99783.09;;;6.69;93.08
85023;BME280;75348;43.126;-2.538;2024-01-10T13:13:12;99782.97;;;6.71;94.18
85023;BME280;75348;43.126;-2.538;2024-01-10T13:15:44;99788.81;;;6.74;94.66
85023;BME280;75348;43.126;-2.538;2024-01-10T13:18:12;99771.88;;;6.67;94.66
85023;BME280;75348;43.126;-2.538;2024-01-10T13:20:43;99792.41;;;6.73;95.18
85023;BME280;75348;43.126;-2.538;2024-01-10T13:23:26;99781.81;;;6.64;94.37
85023;BME280;75348;43.126;-2.538;2024-01-10T13:25:55;99779.34;;;6.63;93.71
85023;BME280;75348;43.126;-2.538;2024-01-10T13:28:24;99782.53;;;6.66;93.58
85023;BME280;75348;43.126;-2.538;2024-01-10T13:30:55;99785.16;;;6.66;95.41